sensor_id;sensor_type;location;lat;lon;timestamp;pressure;altitude;pressure_sealevel;temperature;humidity
18275;BME280;19470;49.322;7.218;2023-04-12T00:00:35;98108.13;;;13.91;100.00
18275;BME280;19470;49.322;7.218;2023-04-12T00:03:04;98103.69;;;13.76;100.00
18275;BME280;19470;49.322;7.218;2023-04-12T00:05:32;98096.22;;;14.18;99.27
18275;BME280;19470;49.322;7.218;2023-04-12T00:07:58;98086.63;;;13.82;100.00
18275;BME280;19470;49.322;7.218;2023-04-12T00:10:26;98075.94;;;13.93;99.83
18275;BME280;19470;49.322;7.218;2023-04-12T00:12:53;98068.13;;;14.36;98.28
18275;BME280;19470;49.322;7.218;2023-04-12T00:15:19;98053.84;;;14.21;97.91
18275;BME280;19470;49.322;7.218;2023-04-12T00:17:47;98061.75;;;14.31;98.18
18275;BME280;19470;49.322;7.218;2023-04-12T00:20:14;98051.94;;;13.59;100.00
18275;BME280;19470;49.322;7.218;2023-04-12T00:22:40;98047.78;;;13.81;100.00
18275;BME280;19470;49.322;7.218;2023-04-12T00:25:29;98046.75;;;13.77;100.00
18275;BME280;19470;49.322;7.218;2023-04-12T00:27:55;98048.03;;;13.85;100.00
18275;BME280;19470;49.322;7.218;2023-04-12T00:30:22;98039.75;;;13.87;100.00
18275;BME280;19470;49.322;7.218;2023-04-12T00:32:50;98036.56;;;13.50;100.00
18275;BME280;19470;49.322;7.218;2023-04-12T00:35:17;98017.50;;;14.06;100.00
18275;BME280;19470;49.322;7.218;2023-04-12T00:37:43;98009.78;;;14.05;100.00
18275;BME280;19470;49.322;7.218;2023-04-12T00:40:11;98009.09;;;14.23;100.00
18275;BME280;19470;49.322;7.218;2023-04-12T00:42:37;98001.97;;;14.43;99.77
18275;BME280;19470;49.322;7.218;2023-04-12T00:45:05;97998.25;;;13.86;100.00
18275;BME280;19470;49.322;7.218;2023-04-12T00:47:34;97987.19;;;14.31;100.00
18275;BME280;19470;49.322;7.218;2023-04-12T00:50:03;97988.28;;;14.25;100.00
18275;BME280;19470;49.322;7.218;2023-04-12T00:52:31;97983.44;;;14.32;100.00
18275;BME280;19470;49.322;7.218;2023-04-12T00:54:58;97988.94;;;14.41;99.12
18275;BME280;19470;49.322;7.218;2023-04-12T00:57:25;97984.91;;;13.91;100.00
18275;BME280;19470;49.322;7.218;2023-04-12T00:59:51;97980.66;;;13.90;100.00
18275;BME280;19470;49.322;7.218;2023-04-12T01:02:18;97967.28;;;14.24;100.00
18275;BME280;19470;49.322;7.218;2023-04-12T01:04:44;97967.50;;;14.03;100.00
18275;BME280;19470;49.322;7.218;2023-04-12T01:07:24;97961.56;;;14.12;100.00
18275;BME280;19470;49.322;7.218;2023-04-12T01:09:57;97963.19;;;13.78;100.00
18275;BME280;19470;49.322;7.218;2023-04-12T01:12:35;97956.78;;;14.32;100.00
18275;BME280;19470;49.322;7.218;2023-04-12T01:15:06;97956.78;;;14.32;100.00
18275;BME280;19470;49.322;7.218;2023-04-12T01:17:38;97950.81;;;14.22;100.00
18275;BME280;19470;49.322;7.218;2023-04-12T01:20:13;97949.38;;;13.76;100.00
18275;BME280;19470;49.322;7.218;2023-04-12T01:22:57;97945.41;;;14.03;100.00
18275;BME280;19470;49.322;7.218;2023-04-12T01:25:37;97939.31;;;13.68;100.00
18275;BME280;19470;49.322;7.218;2023-04-12T01:28:08;97935.59;;;13.98;100.00
18275;BME280;19470;49.322;7.218;2023-04-12T01:30:37;97927.72;;;13.54;100.00
18275;BME280;19470;49.322;7.218;2023-04-12T01:33:05;97920.78;;;14.16;100.00
18275;BME280;19470;49.322;7.218;2023-04-12T01:35:35;97917.31;;;13.87;100.00
18275;BME280;19470;49.322;7.218;2023-04-12T01:38:03;97912.94;;;14.01;100.00
18275;BME280;19470;49.322;7.218;2023-04-12T01:40:30;97907.06;;;13.46;100.00
18275;BME280;19470;49.322;7.218;2023-04-12T01:43:04;97894.34;;;13.96;100.00
18275;BME280;19470;49.322;7.218;2023-04-12T01:45:32;97897.69;;;14.06;100.00
18275;BME280;19470;49.322;7.218;2023-04-12T01:48:00;97887.88;;;14.02;100.00
18275;BME280;19470;49.322;7.218;2023-04-12T01:50:32;97892.84;;;13.26;100.00
18275;BME280;19470;49.322;7.218;2023-04-12T01:53:02;97881.22;;;13.80;100.00
18275;BME280;19470;49.322;7.218;2023-04-12T01:55:30;97883.25;;;13.89;100.00
18275;BME280;19470;49.322;7.218;2023-04-12T01:57:58;97874.31;;;14.03;100.00
18275;BME280;19470;49.322;7.218;2023-04-12T02:00:26;97860.94;;;14.09;100.00
18275;BME280;19470;49.322;7.218;2023-04-12T02:02:54;97863.06;;;13.59;100.00
18275;BME280;19470;49.322;7.218;2023-04-12T02:05:22;97860.50;;;13.48;100.00
18275;BME280;19470;49.322;7.218;2023-04-12T02:07:50;97841.59;;;14.03;100.00
18275;BME280;19470;49.322;7.218;2023-04-12T02:10:27;97839.84;;;13.93;100.00
18275;BME280;19470;49.322;7.218;2023-04-12T02:12:53;97833.75;;;13.88;100.00
18275;BME280;19470;49.322;7.218;2023-04-12T02:15:20;97826.34;;;14.09;100.00
18275;BME280;19470;49.322;7.218;2023-04-12T02:17:47;97810.06;;;14.10;100.00
18275;BME280;19470;49.322;7.218;2023-04-12T02:20:19;97804.75;;;14.10;100.00
18275;BME280;19470;49.322;7.218;2023-04-12T02:22:45;97791.66;;;14.14;100.00
18275;BME280;19470;49.322;7.218;2023-04-12T02:25:12;97782.34;;;14.11;100.00
18275;BME280;19470;49.322;7.218;2023-04-12T02:27:39;97781.31;;;14.12;100.00
18275;BME280;19470;49.322;7.218;2023-04-12T02:30:06;97782.56;;;13.72;100.00
18275;BME280;19470;49.322;7.218;2023-04-12T02:32:33;97769.41;;;14.04;100.00
18275;BME280;19470;49.322;7.218;2023-04-12T02:35:08;97764.31;;;14.27;100.00
18275;BME280;19470;49.322;7.218;2023-04-12T02:37:36;97752.09;;;14.07;100.00
18275;BME280;19470;49.322;7.218;2023-04-12T02:40:03;97739.84;;;14.06;100.00
18275;BME280;19470;49.322;7.218;2023-04-12T02:42:34;97739.44;;;14.18;100.00
18275;BME280;19470;49.322;7.218;2023-04-12T02:45:01;97725.09;;;14.14;100.00
18275;BME280;19470;49.322;7.218;2023-04-12T02:47:28;97724.47;;;14.03;100.00
18275;BME280;19470;49.322;7.218;2023-04-12T02:49:54;97717.19;;;14.09;100.00
18275;BME280;19470;49.322;7.218;2023-04-12T02:52:21;97710.22;;;13.94;100.00
18275;BME280;19470;49.322;7.218;2023-04-12T02:54:50;97706.09;;;14.01;100.00
18275;BME280;19470;49.322;7.218;2023-04-12T02:57:16;97700.84;;;14.15;100.00
18275;BME280;19470;49.322;7.218;2023-04-12T02:59:45;97692.50;;;14.03;100.00
18275;BME280;19470;49.322;7.218;2023-04-12T03:02:11;97695.31;;;13.74;100.00
18275;BME280;19470;49.322;7.218;2023-04-12T03:04:38;97685.16;;;13.95;100.00
18275;BME280;19470;49.322;7.218;2023-04-12T03:07:05;97682.00;;;13.50;100.00
18275;BME280;19470;49.322;7.218;2023-04-12T03:09:31;97673.34;;;13.63;100.00
18275;BME280;19470;49.322;7.218;2023-04-12T03:12:00;97667.84;;;13.97;100.00
18275;BME280;19470;49.322;7.218;2023-04-12T03:14:27;97662.69;;;13.63;100.00
18275;BME280;19470;49.322;7.218;2023-04-12T03:16:53;97659.25;;;14.00;100.00
18275;BME280;19470;49.322;7.218;2023-04-12T03:19:20;97646.31;;;13.94;100.00
18275;BME280;19470;49.322;7.218;2023-04-12T03:21:47;97647.19;;;13.89;100.00
18275;BME280;19470;49.322;7.218;2023-04-12T03:24:13;97644.69;;;13.98;100.00
18275;BME280;19470;49.322;7.218;2023-04-12T03:26:40;97642.28;;;14.15;100.00
18275;BME280;19470;49.322;7.218;2023-04-12T03:29:09;97635.25;;;13.87;100.00
18275;BME280;19470;49.322;7.218;2023-04-12T03:31:35;97630.59;;;13.97;100.00
18275;BME280;19470;49.322;7.218;2023-04-12T03:34:02;97623.25;;;13.89;100.00
18275;BME280;19470;49.322;7.218;2023-04-12T03:36:29;97616.13;;;13.85;100.00
18275;BME280;19470;49.322;7.218;2023-04-12T03:38:55;97613.94;;;13.68;100.00
18275;BME280;19470;49.322;7.218;2023-04-12T03:41:22;97609.69;;;14.04;100.00
18275;BME280;19470;49.322;7.218;2023-04-12T03:43:48;97606.19;;;13.71;100.00
18275;BME280;19470;49.322;7.218;2023-04-12T03:46:16;97599.53;;;13.74;100.00
18275;BME280;19470;49.322;7.218;2023-04-12T03:48:43;97594.38;;;13.77;100.00
18275;BME280;19470;49.322;7.218;2023-04-12T03:51:28;97592.16;;;13.47;100.00
18275;BME280;19470;49.322;7.218;2023-04-12T03:53:54;97576.84;;;13.58;100.00
18275;BME280;19470;49.322;7.218;2023-04-12T03:56:21;97577.94;;;13.38;100.00
18275;BME280;19470;49.322;7.218;2023-04-12T03:58:47;97571.97;;;13.84;100.00
18275;BME280;19470;49.322;7.218;2023-04-12T04:01:14;97568.09;;;13.57;100.00
18275;BME280;19470;49.322;7.218;2023-04-12T04:03:43;97566.78;;;13.73;100.00
18275;BME280;19470;49.322;7.218;2023-04-12T04:06:10;97560.25;;;13.66;100.00
18275;BME280;19470;49.322;7.218;2023-04-12T04:08:37;97558.31;;;13.34;100.00
18275;BME280;19470;49.322;7.218;2023-04-12T04:11:04;97549.63;;;13.66;100.00
18275;BME280;19470;49.322;7.218;2023-04-12T04:13:30;97540.81;;;13.84;100.00
18275;BME280;19470;49.322;7.218;2023-04-12T04:16:00;97548.66;;;13.75;100.00
18275;BME280;19470;49.322;7.218;2023-04-12T04:18:27;97534.53;;;13.94;100.00
18275;BME280;19470;49.322;7.218;2023-04-12T04:20:55;97534.72;;;13.84;100.00
18275;BME280;19470;49.322;7.218;2023-04-12T04:23:22;97533.91;;;13.64;100.00
18275;BME280;19470;49.322;7.218;2023-04-12T04:25:49;97526.53;;;13.23;100.00
18275;BME280;19470;49.322;7.218;2023-04-12T04:28:17;97520.50;;;13.55;100.00
18275;BME280;19470;49.322;7.218;2023-04-12T04:30:44;97522.16;;;13.70;100.00
18275;BME280;19470;49.322;7.218;2023-04-12T04:33:11;97500.94;;;13.65;100.00
18275;BME280;19470;49.322;7.218;2023-04-12T04:35:38;97493.63;;;13.57;100.00
18275;BME280;19470;49.322;7.218;2023-04-12T04:38:06;97504.00;;;12.97;100.00
18275;BME280;19470;49.322;7.218;2023-04-12T04:40:35;97489.13;;;13.71;100.00
18275;BME280;19470;49.322;7.218;2023-04-12T04:43:01;97472.31;;;13.76;100.00
18275;BME280;19470;49.322;7.218;2023-04-12T04:45:29;97476.50;;;12.64;100.00
18275;BME280;19470;49.322;7.218;2023-04-12T04:47:56;97503.66;;;12.08;100.00
18275;BME280;19470;49.322;7.218;2023-04-12T04:50:23;97497.06;;;12.77;100.00
18275;BME280;19470;49.322;7.218;2023-04-12T04:52:51;97487.25;;;12.77;100.00
18275;BME280;19470;49.322;7.218;2023-04-12T04:55:19;97477.50;;;13.67;100.00
18275;BME280;19470;49.322;7.218;2023-04-12T04:57:45;97461.78;;;13.85;100.00
18275;BME280;19470;49.322;7.218;2023-04-12T05:00:18;97463.66;;;13.84;100.00
18275;BME280;19470;49.322;7.218;2023-04-12T05:02:45;97477.56;;;13.95;100.00
18275;BME280;19470;49.322;7.218;2023-04-12T05:05:12;97460.50;;;13.96;100.00
18275;BME280;19470;49.322;7.218;2023-04-12T05:07:40;97464.44;;;13.14;100.00
18275;BME280;19470;49.322;7.218;2023-04-12T05:10:08;97447.97;;;12.93;100.00
18275;BME280;19470;49.322;7.218;2023-04-12T05:12:36;97454.19;;;13.26;100.00
18275;BME280;19470;49.322;7.218;2023-04-12T05:15:04;97449.00;;;13.35;100.00
18275;BME280;19470;49.322;7.218;2023-04-12T05:17:30;97436.41;;;13.41;100.00
18275;BME280;19470;49.322;7.218;2023-04-12T05:23:20;97423.88;;;13.60;100.00
18275;BME280;19470;49.322;7.218;2023-04-12T05:25:47;97425.38;;;13.66;100.00
18275;BME280;19470;49.322;7.218;2023-04-12T05:28:15;97422.69;;;13.15;100.00
18275;BME280;19470;49.322;7.218;2023-04-12T05:30:42;97421.28;;;13.41;100.00
18275;BME280;19470;49.322;7.218;2023-04-12T05:33:09;97420.97;;;13.75;100.00
18275;BME280;19470;49.322;7.218;2023-04-12T05:35:35;97401.22;;;13.11;100.00
18275;BME280;19470;49.322;7.218;2023-04-12T05:38:02;97406.69;;;13.01;100.00
18275;BME280;19470;49.322;7.218;2023-04-12T05:40:29;97396.19;;;13.61;100.00
18275;BME280;19470;49.322;7.218;2023-04-12T05:42:56;97392.50;;;13.43;100.00
18275;BME280;19470;49.322;7.218;2023-04-12T05:45:24;97391.41;;;13.77;100.00
18275;BME280;19470;49.322;7.218;2023-04-12T05:47:52;97392.19;;;13.77;100.00
18275;BME280;19470;49.322;7.218;2023-04-12T05:50:18;97382.34;;;14.19;100.00
18275;BME280;19470;49.322;7.218;2023-04-12T05:52:45;97387.19;;;14.03;100.00
18275;BME280;19470;49.322;7.218;2023-04-12T05:55:12;97392.81;;;13.42;100.00
18275;BME280;19470;49.322;7.218;2023-04-12T05:57:40;97375.75;;;13.89;100.00
18275;BME280;19470;49.322;7.218;2023-04-12T06:00:08;97369.84;;;14.06;100.00
18275;BME280;19470;49.322;7.218;2023-04-12T06:02:42;97369.06;;;13.45;100.00
18275;BME280;19470;49.322;7.218;2023-04-12T06:05:08;97349.41;;;14.01;100.00
18275;BME280;19470;49.322;7.218;2023-04-12T06:07:35;97356.50;;;14.47;100.00
18275;BME280;19470;49.322;7.218;2023-04-12T06:10:04;97357.03;;;14.08;100.00
18275;BME280;19470;49.322;7.218;2023-04-12T06:12:31;97359.06;;;14.39;100.00
18275;BME280;19470;49.322;7.218;2023-04-12T06:14:57;97359.00;;;13.75;100.00
18275;BME280;19470;49.322;7.218;2023-04-12T06:17:24;97343.13;;;13.84;100.00
18275;BME280;19470;49.322;7.218;2023-04-12T06:19:52;97346.75;;;13.88;100.00
18275;BME280;19470;49.322;7.218;2023-04-12T06:22:19;97329.50;;;13.71;100.00
18275;BME280;19470;49.322;7.218;2023-04-12T06:24:45;97332.09;;;14.04;100.00
18275;BME280;19470;49.322;7.218;2023-04-12T06:27:12;97335.50;;;14.46;100.00
18275;BME280;19470;49.322;7.218;2023-04-12T06:29:38;97336.78;;;14.48;100.00
18275;BME280;19470;49.322;7.218;2023-04-12T06:32:05;97329.69;;;14.30;100.00
18275;BME280;19470;49.322;7.218;2023-04-12T06:34:31;97305.53;;;14.54;100.00
18275;BME280;19470;49.322;7.218;2023-04-12T06:36:59;97320.03;;;14.20;100.00
18275;BME280;19470;49.322;7.218;2023-04-12T06:39:26;97298.03;;;14.28;100.00
18275;BME280;19470;49.322;7.218;2023-04-12T06:41:52;97299.81;;;14.33;100.00
18275;BME280;19470;49.322;7.218;2023-04-12T06:44:19;97301.25;;;14.03;100.00
18275;BME280;19470;49.322;7.218;2023-04-12T06:46:46;97295.13;;;14.16;100.00
18275;BME280;19470;49.322;7.218;2023-04-12T06:49:12;97283.59;;;14.57;100.00
18275;BME280;19470;49.322;7.218;2023-04-12T06:51:39;97278.72;;;14.73;100.00
18275;BME280;19470;49.322;7.218;2023-04-12T06:54:06;97283.44;;;14.40;100.00
18275;BME280;19470;49.322;7.218;2023-04-12T06:56:35;97278.97;;;13.85;100.00
18275;BME280;19470;49.322;7.218;2023-04-12T06:59:02;97270.25;;;14.57;100.00
18275;BME280;19470;49.322;7.218;2023-04-12T07:01:28;97268.56;;;14.25;100.00
18275;BME280;19470;49.322;7.218;2023-04-12T07:03:55;97267.25;;;13.72;100.00
18275;BME280;19470;49.322;7.218;2023-04-12T07:06:21;97256.16;;;14.06;100.00
18275;BME280;19470;49.322;7.218;2023-04-12T07:08:48;97258.75;;;13.98;100.00
18275;BME280;19470;49.322;7.218;2023-04-12T07:11:16;97244.06;;;14.50;100.00
18275;BME280;19470;49.322;7.218;2023-04-12T07:13:43;97249.59;;;14.54;100.00
18275;BME280;19470;49.322;7.218;2023-04-12T07:16:09;97249.75;;;14.44;100.00
18275;BME280;19470;49.322;7.218;2023-04-12T07:18:36;97244.66;;;14.33;100.00
18275;BME280;19470;49.322;7.218;2023-04-12T07:21:04;97243.19;;;13.77;100.00
18275;BME280;19470;49.322;7.218;2023-04-12T07:23:31;97232.53;;;13.91;100.00
18275;BME280;19470;49.322;7.218;2023-04-12T07:25:58;97230.81;;;14.23;100.00
18275;BME280;19470;49.322;7.218;2023-04-12T07:28:27;97233.22;;;13.97;100.00
18275;BME280;19470;49.322;7.218;2023-04-12T07:30:53;97228.44;;;14.44;100.00
18275;BME280;19470;49.322;7.218;2023-04-12T07:33:20;97224.34;;;14.38;100.00
18275;BME280;19470;49.322;7.218;2023-04-12T07:35:46;97228.16;;;14.59;100.00
18275;BME280;19470;49.322;7.218;2023-04-12T07:38:13;97219.53;;;14.40;100.00
18275;BME280;19470;49.322;7.218;2023-04-12T07:40:39;97232.06;;;14.25;100.00
18275;BME280;19470;49.322;7.218;2023-04-12T07:43:06;97220.22;;;13.95;100.00
18275;BME280;19470;49.322;7.218;2023-04-12T07:45:36;97219.44;;;13.95;100.00
18275;BME280;19470;49.322;7.218;2023-04-12T07:48:03;97222.72;;;14.14;100.00
18275;BME280;19470;49.322;7.218;2023-04-12T07:50:29;97211.75;;;14.29;100.00
18275;BME280;19470;49.322;7.218;2023-04-12T07:53:10;97204.25;;;14.31;100.00
18275;BME280;19470;49.322;7.218;2023-04-12T07:55:42;97200.41;;;14.60;100.00
18275;BME280;19470;49.322;7.218;2023-04-12T07:58:08;97199.91;;;14.36;100.00
18275;BME280;19470;49.322;7.218;2023-04-12T08:00:37;97207.88;;;14.49;100.00
18275;BME280;19470;49.322;7.218;2023-04-12T08:03:03;97196.63;;;14.83;100.00
18275;BME280;19470;49.322;7.218;2023-04-12T08:05:30;97194.38;;;14.32;100.00
18275;BME280;19470;49.322;7.218;2023-04-12T08:07:56;97197.69;;;14.15;100.00
18275;BME280;19470;49.322;7.218;2023-04-12T08:10:23;97211.88;;;14.47;100.00
18275;BME280;19470;49.322;7.218;2023-04-12T08:12:49;97196.50;;;14.44;100.00
18275;BME280;19470;49.322;7.218;2023-04-12T08:15:16;97196.78;;;14.56;100.00
18275;BME280;19470;49.322;7.218;2023-04-12T08:17:44;97203.47;;;14.31;100.00
18275;BME280;19470;49.322;7.218;2023-04-12T08:20:11;97194.63;;;14.22;100.00
18275;BME280;19470;49.322;7.218;2023-04-12T08:22:37;97183.09;;;14.49;100.00
18275;BME280;19470;49.322;7.218;2023-04-12T08:25:05;97186.09;;;15.09;100.00
18275;BME280;19470;49.322;7.218;2023-04-12T08:27:32;97185.66;;;15.16;100.00
18275;BME280;19470;49.322;7.218;2023-04-12T08:29:59;97192.09;;;14.62;100.00
18275;BME280;19470;49.322;7.218;2023-04-12T08:32:25;97179.38;;;15.12;100.00
18275;BME280;19470;49.322;7.218;2023-04-12T08:34:53;97185.47;;;14.73;100.00
18275;BME280;19470;49.322;7.218;2023-04-12T08:37:20;97180.00;;;14.78;100.00
18275;BME280;19470;49.322;7.218;2023-04-12T08:39:47;97172.19;;;15.21;100.00
18275;BME280;19470;49.322;7.218;2023-04-12T08:42:14;97170.13;;;14.78;100.00
18275;BME280;19470;49.322;7.218;2023-04-12T08:44:41;97178.97;;;15.27;100.00
18275;BME280;19470;49.322;7.218;2023-04-12T08:47:09;97174.59;;;14.92;100.00
18275;BME280;19470;49.322;7.218;2023-04-12T08:49:36;97183.56;;;14.73;100.00
18275;BME280;19470;49.322;7.218;2023-04-12T08:52:06;97173.66;;;14.96;100.00
18275;BME280;19470;49.322;7.218;2023-04-12T08:54:33;97170.91;;;15.58;100.00
18275;BME280;19470;49.322;7.218;2023-04-12T08:57:01;97171.88;;;14.83;100.00
18275;BME280;19470;49.322;7.218;2023-04-12T08:59:29;97171.31;;;14.72;100.00
18275;BME280;19470;49.322;7.218;2023-04-12T09:01:57;97176.22;;;14.79;100.00
18275;BME280;19470;49.322;7.218;2023-04-12T09:04:24;97173.03;;;15.30;100.00
18275;BME280;19470;49.322;7.218;2023-04-12T09:06:51;97175.16;;;14.57;100.00
18275;BME280;19470;49.322;7.218;2023-04-12T09:09:32;97158.38;;;15.19;100.00
18275;BME280;19470;49.322;7.218;2023-04-12T09:12:05;97166.69;;;15.66;100.00
18275;BME280;19470;49.322;7.218;2023-04-12T09:14:32;97153.03;;;15.19;100.00
18275;BME280;19470;49.322;7.218;2023-04-12T09:16:58;97148.78;;;15.58;100.00
18275;BME280;19470;49.322;7.218;2023-04-12T09:19:32;97153.75;;;15.51;100.00
18275;BME280;19470;49.322;7.218;2023-04-12T09:21:59;97156.88;;;15.36;100.00
18275;BME280;19470;49.322;7.218;2023-04-12T09:24:27;97148.72;;;15.41;100.00
18275;BME280;19470;49.322;7.218;2023-04-12T09:27:01;97153.03;;;15.19;100.00
18275;BME280;19470;49.322;7.218;2023-04-12T09:29:29;97146.63;;;15.29;100.00
18275;BME280;19470;49.322;7.218;2023-04-12T09:32:01;97140.84;;;15.27;100.00
18275;BME280;19470;49.322;7.218;2023-04-12T09:34:28;97119.97;;;15.20;100.00
18275;BME280;19470;49.322;7.218;2023-04-12T09:36:55;97131.97;;;15.57;100.00
18275;BME280;19470;49.322;7.218;2023-04-12T09:39:32;97129.38;;;15.92;100.00
18275;BME280;19470;49.322;7.218;2023-04-12T09:42:06;97128.09;;;15.90;100.00
18275;BME280;19470;49.322;7.218;2023-04-12T09:44:33;97133.13;;;15.74;100.00
18275;BME280;19470;49.322;7.218;2023-04-12T09:46:59;97120.81;;;15.55;100.00
18275;BME280;19470;49.322;7.218;2023-04-12T09:49:37;97141.06;;;14.99;100.00
18275;BME280;19470;49.322;7.218;2023-04-12T09:52:05;97117.09;;;15.65;100.00
18275;BME280;19470;49.322;7.218;2023-04-12T09:54:36;97113.00;;;15.59;100.00
18275;BME280;19470;49.322;7.218;2023-04-12T09:57:05;97122.53;;;15.34;100.00
18275;BME280;19470;49.322;7.218;2023-04-12T09:59:35;97114.66;;;15.38;100.00
18275;BME280;19470;49.322;7.218;2023-04-12T10:02:06;97109.31;;;15.29;100.00
18275;BME280;19470;49.322;7.218;2023-04-12T10:04:35;97117.75;;;15.79;100.00
18275;BME280;19470;49.322;7.218;2023-04-12T10:07:03;97113.72;;;15.33;100.00
18275;BME280;19470;49.322;7.218;2023-04-12T10:09:30;97105.66;;;15.82;100.00
18275;BME280;19470;49.322;7.218;2023-04-12T10:11:58;97107.75;;;15.28;100.00
18275;BME280;19470;49.322;7.218;2023-04-12T10:14:27;97106.44;;;15.82;100.00
18275;BME280;19470;49.322;7.218;2023-04-12T10:16:55;97104.81;;;15.55;100.00
18275;BME280;19470;49.322;7.218;2023-04-12T10:19:24;97101.09;;;15.91;100.00
18275;BME280;19470;49.322;7.218;2023-04-12T10:21:51;97108.56;;;15.46;100.00
18275;BME280;19470;49.322;7.218;2023-04-12T10:24:20;97100.31;;;15.99;100.00
18275;BME280;19470;49.322;7.218;2023-04-12T10:26:47;97104.84;;;16.16;100.00
18275;BME280;19470;49.322;7.218;2023-04-12T10:29:26;97101.66;;;15.45;100.00
18275;BME280;19470;49.322;7.218;2023-04-12T10:31:53;97093.56;;;15.84;100.00
18275;BME280;19470;49.322;7.218;2023-04-12T10:34:26;97095.75;;;15.65;100.00
18275;BME280;19470;49.322;7.218;2023-04-12T10:36:54;97088.84;;;15.90;100.00
18275;BME280;19470;49.322;7.218;2023-04-12T10:39:37;97082.56;;;15.95;100.00
18275;BME280;19470;49.322;7.218;2023-04-12T10:42:18;97076.59;;;15.80;100.00
18275;BME280;19470;49.322;7.218;2023-04-12T10:44:48;97076.59;;;16.15;100.00
18275;BME280;19470;49.322;7.218;2023-04-12T10:47:19;97087.59;;;16.05;100.00
18275;BME280;19470;49.322;7.218;2023-04-12T10:50:22;97068.44;;;16.03;100.00
18275;BME280;19470;49.322;7.218;2023-04-12T10:53:20;97064.09;;;15.06;100.00
18275;BME280;19470;49.322;7.218;2023-04-12T10:55:47;97067.34;;;15.95;100.00
18275;BME280;19470;49.322;7.218;2023-04-12T10:58:55;97058.84;;;15.84;100.00
18275;BME280;19470;49.322;7.218;2023-04-12T11:01:24;97063.75;;;15.82;100.00
18275;BME280;19470;49.322;7.218;2023-04-12T11:04:12;97066.22;;;15.53;100.00
18275;BME280;19470;49.322;7.218;2023-04-12T11:06:46;97070.97;;;15.73;100.00
18275;BME280;19470;49.322;7.218;2023-04-12T11:09:18;97073.78;;;15.68;100.00
18275;BME280;19470;49.322;7.218;2023-04-12T11:11:46;97056.16;;;15.50;100.00
18275;BME280;19470;49.322;7.218;2023-04-12T11:14:14;97059.44;;;15.47;100.00
18275;BME280;19470;49.322;7.218;2023-04-12T11:19:49;97043.13;;;15.31;100.00
18275;BME280;19470;49.322;7.218;2023-04-12T11:22:17;97053.00;;;15.48;100.00
18275;BME280;19470;49.322;7.218;2023-04-12T11:24:45;97061.75;;;15.14;100.00
18275;BME280;19470;49.322;7.218;2023-04-12T11:27:13;97050.50;;;15.25;100.00
18275;BME280;19470;49.322;7.218;2023-04-12T11:29:41;97050.53;;;15.60;100.00
18275;BME280;19470;49.322;7.218;2023-04-12T11:32:10;97047.94;;;15.12;100.00
18275;BME280;19470;49.322;7.218;2023-04-12T11:34:37;97044.03;;;16.22;100.00
18275;BME280;19470;49.322;7.218;2023-04-12T11:37:06;97038.19;;;16.84;100.00
18275;BME280;19470;49.322;7.218;2023-04-12T11:39:34;97034.72;;;16.45;100.00
18275;BME280;19470;49.322;7.218;2023-04-12T11:42:01;97033.03;;;16.32;100.00
18275;BME280;19470;49.322;7.218;2023-04-12T11:44:28;97033.38;;;16.77;100.00
18275;BME280;19470;49.322;7.218;2023-04-12T11:46:55;97036.41;;;16.97;100.00
18275;BME280;19470;49.322;7.218;2023-04-12T11:49:22;97043.47;;;16.54;100.00
18275;BME280;19470;49.322;7.218;2023-04-12T11:51:48;97039.19;;;16.71;100.00
18275;BME280;19470;49.322;7.218;2023-04-12T11:54:16;97035.75;;;16.06;100.00
18275;BME280;19470;49.322;7.218;2023-04-12T11:56:43;97050.59;;;16.42;100.00
18275;BME280;19470;49.322;7.218;2023-04-12T11:59:10;97054.13;;;15.99;100.00
18275;BME280;19470;49.322;7.218;2023-04-12T12:01:37;97062.91;;;15.56;100.00
18275;BME280;19470;49.322;7.218;2023-04-12T12:04:04;97080.94;;;15.42;100.00
18275;BME280;19470;49.322;7.218;2023-04-12T12:06:31;97068.41;;;15.51;100.00
18275;BME280;19470;49.322;7.218;2023-04-12T12:08:58;97104.00;;;14.49;100.00
18275;BME280;19470;49.322;7.218;2023-04-12T12:11:26;97107.75;;;14.35;100.00
18275;BME280;19470;49.322;7.218;2023-04-12T12:13:54;97097.50;;;13.97;100.00
18275;BME280;19470;49.322;7.218;2023-04-12T12:16:25;97097.38;;;14.02;100.00
18275;BME280;19470;49.322;7.218;2023-04-12T12:18:53;97072.69;;;14.32;100.00
18275;BME280;19470;49.322;7.218;2023-04-12T12:21:20;97083.34;;;14.10;100.00
18275;BME280;19470;49.322;7.218;2023-04-12T12:23:47;97088.06;;;14.13;100.00
18275;BME280;19470;49.322;7.218;2023-04-12T12:26:19;97087.31;;;14.44;100.00
18275;BME280;19470;49.322;7.218;2023-04-12T12:28:50;97083.06;;;14.65;100.00
18275;BME280;19470;49.322;7.218;2023-04-12T12:31:18;97096.81;;;14.90;100.00
18275;BME280;19470;49.322;7.218;2023-04-12T12:33:45;97096.13;;;14.75;100.00
18275;BME280;19470;49.322;7.218;2023-04-12T12:36:12;97099.53;;;14.67;100.00
18275;BME280;19470;49.322;7.218;2023-04-12T12:38:40;97096.03;;;14.89;100.00
18275;BME280;19470;49.322;7.218;2023-04-12T12:41:14;97096.47;;;14.82;100.00
18275;BME280;19470;49.322;7.218;2023-04-12T12:43:44;97092.25;;;15.56;100.00
18275;BME280;19470;49.322;7.218;2023-04-12T12:46:12;97099.47;;;15.47;100.00
18275;BME280;19470;49.322;7.218;2023-04-12T12:48:39;97090.13;;;15.09;100.00
18275;BME280;19470;49.322;7.218;2023-04-12T12:51:06;97081.75;;;15.51;100.00
18275;BME280;19470;49.322;7.218;2023-04-12T12:53:33;97084.06;;;15.26;100.00
18275;BME280;19470;49.322;7.218;2023-04-12T12:56:00;97107.13;;;15.31;100.00
18275;BME280;19470;49.322;7.218;2023-04-12T12:58:27;97091.91;;;15.31;100.00
18275;BME280;19470;49.322;7.218;2023-04-12T13:00:53;97104.75;;;15.21;100.00
18275;BME280;19470;49.322;7.218;2023-04-12T13:03:22;97097.31;;;15.66;100.00